McCook, NE

11:50 AM CDT on August 04, 2015 (GMT -0500)
KNEMCCOO2 | | Change Station
CLOSE
Current Station
Personal Weather Station
Location: McCook, NE
Elevation: 2609 ft
Nearby Weather Stations

Elev 2609 ft 40.21 °N, 100.64 °W | Updated 5 minutes ago

Thunderstorm
Thunderstorm
67.8 °F
Feels Like 67.8 °F
N
0.0
Wind Variable Wind from East
Gusts 15.4 mph

Today
High -- | Low -- °F
--% Chance of Precip.
Yesterday
High -- | Low -- °F
Precip. -- in
6:43 AM 8:53 PM
Waning Gibbous, 76% visible
Pressure 29.98 in
Visibility 0.5 miles
Clouds Overcast 800 ft
Dew Point 66 °F
Humidity 94%
Rainfall 2.39 in
Snow Depth Not available.
UV 2 out of 12
Pollen 7.90 out of 12
Air Quality Not available.
Flu Activity Not available.
SPECI KMCK 041626Z AUTO VRB06KT 1/2SM +TSRA FG OVC008 21/19 A2998 RMK AO2 LTG DSNT ALQDS CIG 004V010 P0035 T02060194

More Conditions Fewer Conditions

Pressure 29.98 in
Visibility 0.5 miles
Clouds Overcast 800 ft
Dew Point 66 °F
Humidity 94%
Rainfall 2.39 in
Snow Depth Not available.
UV 2 out of 12
Pollen 7.90 out of 12
Air Quality Not available.
Flu Activity Not available.
SPECI KMCK 041626Z AUTO VRB06KT 1/2SM +TSRA FG OVC008 21/19 A2998 RMK AO2 LTG DSNT ALQDS CIG 004V010 P0035 T02060194

More Conditions Fewer Conditions

10-Day Weather Forecast

×

Almanac

Astronomy

Aug. 04, 2015 Rise Set
Actual Time
Civil Twilight
Nautical Twilight
Astronomical Twilight
Moon
Length of Visible Light
Length of Day
Tomorrow will be .
, % of the Moon is Illuminated

Today's Extremes

State Highs State Lows

Community

WunderPhotos

Upload Photos

1,843,920 photos uploaded!

WunderBlogs® & News

Nearby

Air Quality

  Air Quality AQ Index Pollutant
Not available.

Snow Depth

Station Depth Elevation

Earthquake Activity

City Distance Mag. Time & Date
Minimum magnitude displayed is 2.5.

Coastal Water Temperatures

Place Temperature

Stations

Nearby Weather Stations

Station Location Temp. Windchill Dew Point Humidity Wind Precip. Elev Updated Type